Time;durP1;ratioP1;P1;durP2;ratioP2;P2;SDS_P1;SDS_P2;PMS_P1;PMS_P2;Temp;Humidity;BMP_temperature;BMP_pressure;BME280_temperature;BME280_humidity;BME280_pressure;Samples;Min_cycle;Max_cycle;Signal;HPM_P1;HPM_P2
2023/03/18 00:01:55;;;;;;;4.75;1.83;;;14.50;63.50;;;;;;5088406;28;20026;-66
2023/03/18 00:04:20;;;;;;;1.98;1.42;;;14.50;63.70;;;;;;5092463;28;20111;-67
2023/03/18 00:06:46;;;;;;;2.88;1.90;;;14.40;63.70;;;;;;5098628;28;20106;-67
2023/03/18 00:09:13;;;;;;;6.13;2.30;;;14.40;63.90;;;;;;5100135;28;20136;-67
2023/03/18 00:11:39;;;;;;;3.33;1.60;;;14.40;63.90;;;;;;5092219;28;20028;-68
2023/03/18 00:14:07;;;;;;;2.10;1.50;;;14.30;63.90;;;;;;5098777;28;20537;-67
2023/03/18 00:16:34;;;;;;;2.47;1.60;;;14.30;63.90;;;;;;5098766;28;20031;-67
2023/03/18 00:19:01;;;;;;;3.22;1.90;;;14.30;64.00;;;;;;5091518;28;20445;-68
2023/03/18 00:21:27;;;;;;;4.22;1.95;;;14.30;64.10;;;;;;5084997;28;20021;-68
2023/03/18 00:23:55;;;;;;;3.60;1.90;;;14.30;64.20;;;;;;5080814;28;20020;-68
2023/03/18 00:26:22;;;;;;;2.40;1.90;;;14.20;64.20;;;;;;5077807;28;20040;-67
2023/03/18 00:28:47;;;;;;;2.20;1.70;;;14.20;64.30;;;;;;5086479;28;20680;-67
2023/03/18 00:31:14;;;;;;;2.80;1.73;;;14.20;64.40;;;;;;5088935;28;20016;-67
2023/03/18 00:33:43;;;;;;;2.42;1.75;;;14.20;64.40;;;;;;5093260;28;20016;-67
2023/03/18 00:36:09;;;;;;;7.38;2.38;;;14.10;64.50;;;;;;5084084;28;20020;-67
2023/03/18 00:38:35;;;;;;;3.45;1.90;;;14.10;64.70;;;;;;5077719;28;20040;-68
2023/03/18 00:41:10;;;;;;;3.03;1.95;;;14.10;64.80;;;;;;5093658;28;20036;-67
2023/03/18 00:43:51;;;;;;;4.47;2.35;;;14.00;64.80;;;;;;5092735;28;20032;-67
2023/03/18 00:46:23;;;;;;;4.20;2.20;;;14.00;64.90;;;;;;5096318;28;20093;-67
2023/03/18 00:48:49;;;;;;;5.10;2.38;;;14.10;65.00;;;;;;5094703;28;20052;-68
2023/03/18 00:51:16;;;;;;;5.57;2.42;;;14.00;65.00;;;;;;5098031;28;20016;-67
2023/03/18 00:53:43;;;;;;;5.47;2.22;;;14.00;65.10;;;;;;5094077;28;20051;-68
2023/03/18 00:56:11;;;;;;;4.00;1.90;;;14.00;65.10;;;;;;5078255;28;20027;-68
2023/03/18 00:58:37;;;;;;;3.35;2.03;;;14.00;65.20;;;;;;5084900;28;20398;-67
2023/03/18 01:01:04;;;;;;;5.85;2.38;;;14.00;65.30;;;;;;5086749;28;20054;-67
2023/03/18 01:03:30;;;;;;;4.32;2.58;;;14.00;65.40;;;;;;5085877;28;20020;-67
2023/03/18 01:05:56;;;;;;;3.53;1.98;;;13.90;65.40;;;;;;5088955;28;20028;-67
2023/03/18 01:08:23;;;;;;;6.25;2.70;;;13.90;65.40;;;;;;5082365;28;20036;-66
2023/03/18 01:10:49;;;;;;;3.28;2.13;;;14.00;65.60;;;;;;5084875;28;20066;-66
2023/03/18 01:13:15;;;;;;;3.13;2.20;;;13.90;65.60;;;;;;5089168;28;20031;-66
2023/03/18 01:15:41;;;;;;;3.05;2.30;;;13.90;65.70;;;;;;5072638;28;20029;-66
2023/03/18 01:18:10;;;;;;;4.57;2.50;;;13.90;65.80;;;;;;5079805;28;20025;-67
2023/03/18 01:20:36;;;;;;;5.65;2.80;;;13.90;65.80;;;;;;5089973;28;20039;-66
2023/03/18 01:23:03;;;;;;;4.13;2.60;;;13.80;65.90;;;;;;5079515;28;20034;-67
2023/03/18 01:25:29;;;;;;;5.78;3.15;;;13.80;66.00;;;;;;5076348;28;20051;-66
2023/03/18 01:27:54;;;;;;;4.63;2.78;;;13.80;66.10;;;;;;5089066;28;20024;-67
2023/03/18 01:30:22;;;;;;;4.57;2.25;;;13.80;66.10;;;;;;5083750;28;20028;-66
2023/03/18 01:32:48;;;;;;;2.38;1.90;;;13.80;66.00;;;;;;5073491;28;20025;-66
2023/03/18 01:35:14;;;;;;;3.97;2.50;;;13.90;66.00;;;;;;5083826;28;20020;-67
2023/03/18 01:37:39;;;;;;;4.45;2.70;;;13.90;66.70;;;;;;5071647;28;20025;-67
2023/03/18 01:40:08;;;;;;;6.57;3.22;;;13.90;66.10;;;;;;5086673;28;20024;-67
2023/03/18 01:42:34;;;;;;;4.63;2.80;;;13.80;66.20;;;;;;5087236;28;20013;-66
2023/03/18 01:45:18;;;;;;;6.20;3.20;;;13.80;66.30;;;;;;5090489;28;20085;-67
2023/03/18 01:47:45;;;;;;;4.53;3.00;;;13.80;66.40;;;;;;5078031;28;20035;-68
2023/03/18 01:50:13;;;;;;;4.03;2.70;;;13.80;66.50;;;;;;5079165;28;20028;-66
2023/03/18 01:52:40;;;;;;;6.25;3.13;;;13.80;66.60;;;;;;5085419;28;20441;-67
2023/03/18 01:55:13;;;;;;;5.70;3.33;;;13.80;66.70;;;;;;5077951;28;20397;-67
2023/03/18 01:57:40;;;;;;;6.32;3.45;;;13.80;66.80;;;;;;5090186;28;20023;-68
2023/03/18 02:00:09;;;;;;;6.60;3.13;;;13.70;66.90;;;;;;5087978;28;20534;-66
2023/03/18 02:02:36;;;;;;;4.10;2.70;;;13.70;66.90;;;;;;5086421;28;20027;-67
2023/03/18 02:05:05;;;;;;;5.20;3.13;;;13.70;66.90;;;;;;5084098;28;20029;-68
2023/03/18 02:07:33;;;;;;;4.37;3.07;;;13.70;66.90;;;;;;5077258;28;20016;-68
2023/03/18 02:10:05;;;;;;;5.40;2.90;;;13.70;67.00;;;;;;5070831;28;20031;-66
2023/03/18 02:12:42;;;;;;;5.13;2.90;;;13.70;67.00;;;;;;5080085;28;20478;-67
2023/03/18 02:15:13;;;;;;;5.60;3.22;;;13.70;67.00;;;;;;5087505;28;20032;-66
2023/03/18 02:17:46;;;;;;;6.20;3.28;;;13.70;67.10;;;;;;5087222;28;20470;-67
2023/03/18 02:20:37;;;;;;;5.50;3.28;;;13.70;67.20;;;;;;5076893;28;20069;-66
2023/03/18 02:23:14;;;;;;;5.13;3.28;;;13.70;67.30;;;;;;5086333;28;20031;-67
2023/03/18 02:26:09;;;;;;;6.13;3.47;;;13.60;67.50;;;;;;5074435;28;20036;-67
2023/03/18 02:28:37;;;;;;;4.88;3.25;;;13.60;67.70;;;;;;5070650;28;20031;-66
2023/03/18 02:31:08;;;;;;;4.88;2.95;;;13.60;67.70;;;;;;5075659;28;20406;-66
2023/03/18 02:33:37;;;;;;;5.40;3.08;;;13.60;67.70;;;;;;5077338;28;20023;-67
2023/03/18 02:36:08;;;;;;;3.88;2.58;;;13.60;67.70;;;;;;5086667;28;20028;-67
2023/03/18 02:38:34;;;;;;;4.13;2.90;;;13.70;67.70;;;;;;5084661;28;20066;-66
2023/03/18 02:41:00;;;;;;;4.03;2.45;;;13.70;67.60;;;;;;5083743;28;20561;-66
2023/03/18 02:43:28;;;;;;;6.18;3.15;;;13.70;67.60;;;;;;5084009;28;20020;-66
2023/03/18 02:46:05;;;;;;;5.50;3.10;;;13.70;67.60;;;;;;5075000;28;20160;-67
2023/03/18 02:48:38;;;;;;;5.60;3.28;;;13.70;67.60;;;;;;5085625;28;20032;-67
2023/03/18 02:51:06;;;;;;;6.00;3.63;;;13.70;67.70;;;;;;5080539;28;20028;-67
2023/03/18 02:53:31;;;;;;;7.22;3.97;;;13.70;67.90;;;;;;5086985;28;20107;-68
2023/03/18 02:55:57;;;;;;;6.45;3.30;;;13.70;67.90;;;;;;5072768;28;20666;-67
2023/03/18 02:58:22;;;;;;;6.60;3.70;;;13.60;68.00;;;;;;5085563;28;20024;-67
2023/03/18 03:00:48;;;;;;;5.50;3.22;;;13.60;68.10;;;;;;5083146;28;20032;-66
2023/03/18 03:03:14;;;;;;;6.65;4.00;;;13.60;68.20;;;;;;5080471;28;20032;-67
2023/03/18 03:05:39;;;;;;;5.72;3.53;;;13.50;68.30;;;;;;5086517;28;20031;-66
2023/03/18 03:08:06;;;;;;;7.47;3.80;;;13.50;68.40;;;;;;5083054;28;20070;-66
2023/03/18 03:10:31;;;;;;;5.85;3.40;;;13.50;68.50;;;;;;5086384;28;20028;-66
2023/03/18 03:12:57;;;;;;;5.97;3.30;;;13.50;68.70;;;;;;5083008;28;20543;-66
2023/03/18 03:15:23;;;;;;;5.25;3.13;;;13.50;68.80;;;;;;5085919;28;20455;-66
2023/03/18 03:17:48;;;;;;;7.70;4.40;;;13.40;68.90;;;;;;5079413;28;20028;-68
2023/03/18 03:20:14;;;;;;;7.18;4.40;;;13.40;69.30;;;;;;5083888;28;20036;-67
2023/03/18 03:22:40;;;;;;;7.40;4.38;;;13.40;69.50;;;;;;5087435;28;20536;-67
2023/03/18 03:25:08;;;;;;;5.88;3.83;;;13.40;69.80;;;;;;5078964;28;20577;-67
2023/03/18 03:27:35;;;;;;;10.25;5.15;;;13.40;69.90;;;;;;5080241;28;20040;-67
2023/03/18 03:30:01;;;;;;;7.38;4.65;;;13.30;70.20;;;;;;5081499;28;20021;-67
2023/03/18 03:32:27;;;;;;;7.85;5.03;;;13.30;70.40;;;;;;5090813;28;20478;-67
2023/03/18 03:34:53;;;;;;;9.77;5.30;;;13.30;70.50;;;;;;5091348;28;20012;-68
2023/03/18 03:37:19;;;;;;;10.15;5.05;;;13.20;71.10;;;;;;5085695;28;20032;-66
2023/03/18 03:39:44;;;;;;;9.23;4.53;;;13.20;71.40;;;;;;5084242;28;20027;-66
2023/03/18 03:42:10;;;;;;;7.80;4.10;;;13.20;71.40;;;;;;5082246;28;20036;-66
2023/03/18 03:44:36;;;;;;;5.53;4.00;;;13.20;71.30;;;;;;5088336;28;20016;-66
2023/03/18 03:47:02;;;;;;;6.78;4.28;;;13.20;71.30;;;;;;5090903;28;20099;-67
2023/03/18 03:49:28;;;;;;;7.13;3.72;;;13.20;71.30;;;;;;5088388;28;20028;-67
2023/03/18 03:51:53;;;;;;;7.75;4.70;;;13.20;71.30;;;;;;5084521;28;20359;-66
2023/03/18 03:54:19;;;;;;;10.90;5.18;;;13.20;71.60;;;;;;5091047;28;20032;-67
2023/03/18 03:56:45;;;;;;;7.03;4.10;;;13.10;72.50;;;;;;5082804;28;20024;-66
2023/03/18 03:59:10;;;;;;;7.70;4.65;;;13.10;72.50;;;;;;5079094;28;20024;-65
2023/03/18 04:01:36;;;;;;;7.38;4.00;;;13.10;72.50;;;;;;5082542;28;20045;-67
2023/03/18 04:04:02;;;;;;;9.85;4.55;;;13.10;72.70;;;;;;5091118;28;20036;-66
2023/03/18 04:06:28;;;;;;;7.47;3.90;;;13.10;72.90;;;;;;5083890;28;20016;-66
2023/03/18 04:08:55;;;;;;;6.60;4.28;;;13.00;73.00;;;;;;5090591;28;20036;-65
2023/03/18 04:11:21;;;;;;;7.10;4.15;;;13.00;73.20;;;;;;5079686;28;20040;-66
2023/03/18 04:13:47;;;;;;;9.63;5.15;;;13.00;73.40;;;;;;5084080;28;20035;-65
2023/03/18 04:16:13;;;;;;;9.38;4.80;;;13.00;73.80;;;;;;5072490;28;20095;-65
2023/03/18 04:18:39;;;;;;;9.52;5.43;;;13.00;74.10;;;;;;5086161;28;20110;-66
2023/03/18 04:21:06;;;;;;;11.27;5.97;;;12.90;74.60;;;;;;5076863;28;20078;-66
2023/03/18 04:23:32;;;;;;;8.52;5.28;;;12.90;75.20;;;;;;5087907;28;20020;-66
2023/03/18 04:25:59;;;;;;;5.97;4.28;;;12.80;75.30;;;;;;5085253;28;20062;-67
2023/03/18 04:28:24;;;;;;;8.93;4.20;;;12.80;75.30;;;;;;5087154;28;20069;-67
2023/03/18 04:30:50;;;;;;;6.40;3.90;;;12.80;76.00;;;;;;5077775;28;20399;-66
2023/03/18 04:33:18;;;;;;;9.13;5.50;;;12.90;75.30;;;;;;5088214;28;20021;-66
2023/03/18 04:35:44;;;;;;;10.48;5.55;;;12.80;75.70;;;;;;5081680;28;20020;-66
2023/03/18 04:38:10;;;;;;;6.90;4.70;;;12.80;75.90;;;;;;5081232;28;20039;-66
2023/03/18 04:40:36;;;;;;;11.85;5.60;;;12.80;76.10;;;;;;5074059;28;20390;-66
2023/03/18 04:43:01;;;;;;;9.57;5.70;;;12.80;76.20;;;;;;5072653;28;20028;-66
2023/03/18 04:45:28;;;;;;;10.18;5.03;;;12.80;76.60;;;;;;5084740;28;20032;-66
2023/03/18 04:47:54;;;;;;;11.05;5.90;;;12.70;76.70;;;;;;5076422;28;20026;-66
2023/03/18 04:50:19;;;;;;;11.15;6.32;;;12.70;76.90;;;;;;5077731;28;20024;-66
2023/03/18 04:52:45;;;;;;;9.15;5.65;;;12.70;77.20;;;;;;5077881;28;20025;-67
2023/03/18 04:55:14;;;;;;;9.93;5.90;;;12.70;77.50;;;;;;5087181;28;20103;-66
2023/03/18 04:57:41;;;;;;;11.95;6.20;;;12.60;77.80;;;;;;5084034;28;20058;-66
2023/03/18 05:00:10;;;;;;;9.85;6.15;;;12.60;78.40;;;;;;5082520;28;20142;-66
2023/03/18 05:02:36;;;;;;;10.35;5.95;;;12.60;78.20;;;;;;5083525;28;20017;-66
2023/03/18 05:05:02;;;;;;;10.55;5.68;;;12.60;78.50;;;;;;5070871;28;20027;-65
2023/03/18 05:07:28;;;;;;;9.43;6.03;;;12.60;78.60;;;;;;5088475;28;20042;-65
2023/03/18 05:09:54;;;;;;;10.90;6.60;;;12.60;78.70;;;;;;5081974;28;20020;-66
2023/03/18 05:12:19;;;;;;;9.65;5.85;;;12.60;78.90;;;;;;5087037;28;20024;-66
2023/03/18 05:14:45;;;;;;;12.38;7.00;;;12.60;78.90;;;;;;5088214;28;20098;-65
2023/03/18 05:17:14;;;;;;;12.10;7.22;;;12.60;79.10;;;;;;5087313;28;20036;-66
2023/03/18 05:19:42;;;;;;;13.38;6.10;;;12.60;79.60;;;;;;5077201;28;20025;-66
2023/03/18 05:22:07;;;;;;;11.73;6.53;;;12.50;79.60;;;;;;5072639;28;20121;-66
2023/03/18 05:24:33;;;;;;;13.52;8.43;;;12.50;79.50;;;;;;5082022;28;20125;-66
2023/03/18 05:26:59;;;;;;;12.07;7.05;;;12.50;80.10;;;;;;5088498;28;20081;-66
2023/03/18 05:29:24;;;;;;;10.40;6.25;;;12.50;80.60;;;;;;5086324;28;20035;-65
2023/03/18 05:31:50;;;;;;;13.25;6.60;;;12.40;80.50;;;;;;5085277;28;20016;-65
2023/03/18 05:34:16;;;;;;;10.18;5.57;;;12.40;80.60;;;;;;5083779;28;20028;-65
2023/03/18 05:36:41;;;;;;;11.43;6.82;;;12.40;80.40;;;;;;5077203;28;20085;-66
2023/03/18 05:39:07;;;;;;;11.60;7.55;;;12.40;80.50;;;;;;5080333;28;20568;-65
2023/03/18 05:41:33;;;;;;;12.45;7.45;;;12.40;81.10;;;;;;5085592;28;20016;-65
2023/03/18 05:43:58;;;;;;;16.23;7.05;;;12.40;81.50;;;;;;5075783;28;20032;-65
2023/03/18 05:46:24;;;;;;;12.55;7.20;;;12.30;81.60;;;;;;5077473;28;20025;-66
2023/03/18 05:48:50;;;;;;;14.32;7.28;;;12.30;81.80;;;;;;5084465;28;20062;-65
2023/03/18 05:51:16;;;;;;;13.55;7.53;;;12.30;82.00;;;;;;5081133;28;20017;-65
2023/03/18 05:53:41;;;;;;;11.80;7.18;;;12.30;82.00;;;;;;5083866;28;20020;-65
2023/03/18 05:56:07;;;;;;;9.93;6.63;;;12.30;82.00;;;;;;5089009;28;20039;-66
2023/03/18 05:58:33;;;;;;;10.52;6.95;;;12.40;81.90;;;;;;5076861;28;20033;-66
2023/03/18 06:00:59;;;;;;;12.50;6.82;;;12.40;81.80;;;;;;5083441;28;20024;-67
2023/03/18 06:03:26;;;;;;;11.98;6.93;;;12.40;81.90;;;;;;5081685;28;20031;-66
2023/03/18 06:05:52;;;;;;;12.13;7.20;;;12.40;82.30;;;;;;5086965;28;20016;-65
2023/03/18 06:08:18;;;;;;;14.55;9.38;;;12.40;82.20;;;;;;5089518;28;20028;-66
2023/03/18 06:10:43;;;;;;;11.20;7.15;;;12.30;83.10;;;;;;5079526;28;20035;-66
2023/03/18 06:13:10;;;;;;;15.55;7.78;;;12.40;82.90;;;;;;5080293;28;20025;-66
2023/03/18 06:15:37;;;;;;;11.02;6.68;;;12.40;82.70;;;;;;5080687;28;20389;-66
2023/03/18 06:18:03;;;;;;;18.65;7.85;;;12.40;82.60;;;;;;5080943;28;20024;-67
2023/03/18 06:20:30;;;;;;;14.57;8.35;;;12.40;83.10;;;;;;5089626;28;20448;-66
2023/03/18 06:22:55;;;;;;;14.77;8.98;;;12.40;83.40;;;;;;5085017;28;20028;-67
2023/03/18 06:25:22;;;;;;;10.15;6.53;;;12.40;83.80;;;;;;5084316;28;20126;-66
2023/03/18 06:27:49;;;;;;;18.73;9.20;;;12.40;83.50;;;;;;5086823;28;20046;-65
2023/03/18 06:30:16;;;;;;;17.90;9.98;;;12.50;83.60;;;;;;5087143;28;20026;-66
2023/03/18 06:32:43;;;;;;;15.82;9.18;;;12.50;84.00;;;;;;5098083;28;20048;-66
2023/03/18 06:35:10;;;;;;;15.85;8.35;;;12.40;84.00;;;;;;5084114;28;20017;-65
2023/03/18 06:37:37;;;;;;;11.73;7.65;;;12.40;83.70;;;;;;5081346;28;20477;-65
2023/03/18 06:40:04;;;;;;;15.98;8.80;;;12.50;83.60;;;;;;5081466;28;20048;-67
2023/03/18 06:42:30;;;;;;;13.85;8.52;;;12.50;83.60;;;;;;5081618;28;20024;-66
2023/03/18 06:44:56;;;;;;;16.05;9.85;;;12.50;83.70;;;;;;5078012;28;20043;-67
2023/03/18 06:47:22;;;;;;;13.18;8.95;;;12.50;84.30;;;;;;5081380;28;20036;-67
2023/03/18 06:49:48;;;;;;;14.13;8.95;;;12.50;84.30;;;;;;5077515;28;20154;-68
2023/03/18 06:52:14;;;;;;;11.25;6.85;;;12.50;85.20;;;;;;5085198;28;20036;-66
2023/03/18 06:54:40;;;;;;;12.75;6.80;;;12.60;84.20;;;;;;5089442;28;20016;-67
2023/03/18 06:57:06;;;;;;;10.90;6.40;;;12.60;83.90;;;;;;5082131;28;20086;-66
2023/03/18 06:59:32;;;;;;;14.77;7.07;;;12.70;83.70;;;;;;5078171;28;20485;-66
2023/03/18 07:01:57;;;;;;;11.07;6.53;;;12.70;83.60;;;;;;5086605;28;20035;-67
2023/03/18 07:04:23;;;;;;;11.57;6.82;;;12.70;83.30;;;;;;5080417;28;20033;-67
2023/03/18 07:06:49;;;;;;;11.60;6.40;;;12.80;83.20;;;;;;5083696;28;20158;-67
2023/03/18 07:09:15;;;;;;;11.90;7.13;;;12.80;83.10;;;;;;5083907;28;20085;-67
2023/03/18 07:11:41;;;;;;;11.60;6.18;;;12.90;83.00;;;;;;5082630;28;20019;-67
2023/03/18 07:14:07;;;;;;;8.45;5.68;;;12.90;83.00;;;;;;5084319;28;20036;-66
2023/03/18 07:16:32;;;;;;;10.02;5.25;;;12.90;82.90;;;;;;5082149;28;20036;-66
2023/03/18 07:18:59;;;;;;;10.10;5.40;;;12.90;82.70;;;;;;5087611;28;20024;-66
2023/03/18 07:21:25;;;;;;;9.73;5.10;;;13.00;82.50;;;;;;5082692;28;20023;-67
2023/03/18 07:23:51;;;;;;;9.55;5.38;;;13.10;82.20;;;;;;5083871;28;20034;-65
2023/03/18 07:26:17;;;;;;;9.32;5.45;;;13.20;82.00;;;;;;5086514;28;20501;-67
2023/03/18 07:28:42;;;;;;;8.90;5.80;;;13.20;81.80;;;;;;5092865;28;20335;-66
2023/03/18 07:31:08;;;;;;;8.55;5.70;;;13.20;81.80;;;;;;5084027;28;20105;-67
2023/03/18 07:33:34;;;;;;;7.90;5.07;;;13.30;81.70;;;;;;5083742;28;20504;-67
2023/03/18 07:35:59;;;;;;;6.70;4.78;;;13.30;81.60;;;;;;5088193;28;20024;-66
2023/03/18 07:38:25;;;;;;;7.63;4.40;;;13.40;81.50;;;;;;5093578;28;20134;-67
2023/03/18 07:40:51;;;;;;;13.98;6.18;;;13.40;81.30;;;;;;5081789;28;20051;-65
2023/03/18 07:43:16;;;;;;;9.48;5.90;;;13.40;81.40;;;;;;5087497;28;20036;-67
2023/03/18 07:45:42;;;;;;;11.52;7.30;;;13.30;81.40;;;;;;5087208;28;20031;-66
2023/03/18 07:48:08;;;;;;;15.18;8.10;;;13.40;81.50;;;;;;5089608;28;20024;-67
2023/03/18 07:50:34;;;;;;;12.65;6.90;;;13.40;81.70;;;;;;5080408;28;20024;-67
2023/03/18 07:53:00;;;;;;;9.45;6.57;;;13.50;81.40;;;;;;5086407;28;20103;-67
2023/03/18 07:55:25;;;;;;;13.00;7.47;;;13.70;81.10;;;;;;5088822;28;20035;-66
2023/03/18 07:57:51;;;;;;;9.63;6.07;;;13.70;81.10;;;;;;5089010;28;20027;-65
2023/03/18 08:00:17;;;;;;;12.68;7.40;;;13.90;80.80;;;;;;5086596;28;20035;-66
2023/03/18 08:02:42;;;;;;;10.70;6.70;;;13.90;80.50;;;;;;5077773;28;20020;-66
2023/03/18 08:05:09;;;;;;;9.80;6.32;;;13.90;80.40;;;;;;5082486;28;20398;-67
2023/03/18 08:07:35;;;;;;;12.75;7.43;;;13.90;80.50;;;;;;5082253;28;20410;-67
2023/03/18 08:10:01;;;;;;;11.13;6.72;;;13.90;80.40;;;;;;5082612;28;20030;-67
2023/03/18 08:12:27;;;;;;;11.13;6.80;;;14.00;80.40;;;;;;5076577;28;20020;-67
2023/03/18 08:14:53;;;;;;;11.50;7.07;;;14.00;80.30;;;;;;5085233;28;20086;-67
2023/03/18 08:17:18;;;;;;;11.20;7.32;;;14.00;80.40;;;;;;5084896;28;20025;-67
2023/03/18 08:19:44;;;;;;;12.75;8.00;;;14.00;80.90;;;;;;5091264;28;20024;-67
2023/03/18 08:22:10;;;;;;;11.57;7.13;;;14.00;80.80;;;;;;5078963;28;20055;-66
2023/03/18 08:24:37;;;;;;;9.73;6.25;;;14.00;80.80;;;;;;5079499;28;20036;-66
2023/03/18 08:27:03;;;;;;;8.57;5.60;;;14.00;80.60;;;;;;5088705;28;20578;-67
2023/03/18 08:29:29;;;;;;;7.63;5.15;;;14.10;80.50;;;;;;5088317;28;20072;-68
2023/03/18 08:31:55;;;;;;;10.07;6.15;;;14.20;80.30;;;;;;5092281;28;20489;-66
2023/03/18 08:34:22;;;;;;;10.40;5.70;;;14.10;80.50;;;;;;5090615;28;20027;-67
2023/03/18 08:36:48;;;;;;;9.05;6.05;;;14.10;80.70;;;;;;5091332;28;20051;-67
2023/03/18 08:39:13;;;;;;;9.73;5.82;;;14.10;80.70;;;;;;5085521;28;20528;-68
2023/03/18 08:41:39;;;;;;;6.18;4.40;;;14.10;80.80;;;;;;5086277;28;20040;-67
2023/03/18 08:44:07;;;;;;;9.32;5.72;;;14.20;80.60;;;;;;5082405;28;20486;-66
2023/03/18 08:46:33;;;;;;;7.38;4.63;;;14.20;80.40;;;;;;5092618;28;20096;-67
2023/03/18 08:48:58;;;;;;;6.90;4.50;;;14.30;80.20;;;;;;5091725;28;20035;-67
2023/03/18 08:51:24;;;;;;;6.55;3.90;;;14.30;79.90;;;;;;5087041;28;20021;-67
2023/03/18 08:53:50;;;;;;;8.05;4.95;;;14.40;79.80;;;;;;5084526;28;20020;-67
2023/03/18 08:56:15;;;;;;;6.32;3.72;;;14.50;79.70;;;;;;5079077;28;20055;-67
2023/03/18 08:58:44;;;;;;;8.73;5.38;;;14.50;79.50;;;;;;5072136;28;20028;-68
2023/03/18 09:01:10;;;;;;;6.72;4.13;;;14.50;79.30;;;;;;5098030;28;20063;-68
2023/03/18 09:03:36;;;;;;;6.63;4.05;;;14.50;79.40;;;;;;5111451;28;20062;-68
2023/03/18 09:06:02;;;;;;;6.88;4.03;;;14.50;79.40;;;;;;5091719;28;20111;-68
2023/03/18 09:08:28;;;;;;;6.25;4.20;;;14.50;79.30;;;;;;5088671;28;20028;-67
2023/03/18 09:10:55;;;;;;;7.47;4.20;;;14.50;79.20;;;;;;5089342;28;20022;-67
2023/03/18 09:13:21;;;;;;;5.88;3.78;;;14.50;79.10;;;;;;5084494;28;20031;-68
2023/03/18 09:15:47;;;;;;;7.43;4.68;;;14.60;79.00;;;;;;5081807;28;20025;-68
2023/03/18 09:18:14;;;;;;;5.78;3.55;;;14.60;78.90;;;;;;5087019;28;20036;-68
2023/03/18 09:20:40;;;;;;;7.40;4.03;;;14.50;78.80;;;;;;5071928;28;20016;-68
2023/03/18 09:23:06;;;;;;;4.95;3.35;;;14.60;78.80;;;;;;5086086;28;20081;-68
2023/03/18 09:25:32;;;;;;;5.90;3.80;;;14.60;78.70;;;;;;5090328;28;20035;-68
2023/03/18 09:27:59;;;;;;;6.22;4.10;;;14.70;78.60;;;;;;5089013;28;20036;-67
2023/03/18 09:30:26;;;;;;;5.72;3.65;;;14.80;78.40;;;;;;5090555;28;20096;-68
2023/03/18 09:32:52;;;;;;;6.40;4.00;;;14.90;78.10;;;;;;5079371;28;20036;-68
2023/03/18 09:35:18;;;;;;;8.32;4.53;;;15.00;77.80;;;;;;5080048;28;20016;-68
2023/03/18 09:37:44;;;;;;;21.38;12.27;;;15.00;77.70;;;;;;5091366;28;20084;-67
2023/03/18 09:40:30;;;;;;;18.35;10.07;;;15.00;77.60;;;;;;5090958;28;20017;-70
2023/03/18 09:43:27;;;;;;;11.07;6.68;;;15.10;77.60;;;;;;5081280;28;20020;-68
2023/03/18 09:46:21;;;;;;;8.40;5.57;;;15.30;77.30;;;;;;5083922;28;20093;-67
2023/03/18 09:49:15;;;;;;;7.32;4.38;;;15.30;77.00;;;;;;5074626;28;20056;-72
2023/03/18 09:52:12;;;;;;;6.72;4.18;;;15.30;77.00;;;;;;5071485;28;20020;-68
2023/03/18 09:55:08;;;;;;;7.15;4.93;;;15.40;77.00;;;;;;5081597;28;20020;-68
2023/03/18 09:57:35;;;;;;;7.63;4.75;;;15.40;76.80;;;;;;5075373;28;20020;-68
2023/03/18 10:00:23;;;;;;;7.10;5.03;;;15.40;76.80;;;;;;5071518;28;20189;-67
2023/03/18 10:02:58;;;;;;;7.70;5.20;;;15.40;76.80;;;;;;5076001;28;20024;-68
2023/03/18 10:05:34;;;;;;;8.68;5.47;;;15.40;76.70;;;;;;5083763;28;20032;-68
2023/03/18 10:08:20;;;;;;;11.30;8.05;;;15.40;76.60;;;;;;5070538;28;20044;-69
2023/03/18 10:10:47;;;;;;;11.85;6.55;;;15.30;76.40;;;;;;5069383;28;20085;-68
2023/03/18 10:13:34;;;;;;;5.68;4.05;;;15.30;76.60;;;;;;5081864;28;20027;-69
2023/03/18 10:16:03;;;;;;;8.55;5.10;;;15.40;76.70;;;;;;5086234;28;20031;-69
2023/03/18 10:18:38;;;;;;;5.60;4.13;;;15.50;77.20;;;;;;5087353;28;20056;-68
2023/03/18 10:21:16;;;;;;;6.93;4.10;;;15.60;76.50;;;;;;5087668;28;20036;-68
2023/03/18 10:23:59;;;;;;;8.68;5.50;;;15.60;76.30;;;;;;5088413;28;20024;-67
2023/03/18 10:26:39;;;;;;;8.20;5.05;;;15.70;76.10;;;;;;5085376;28;20038;-67
2023/03/18 10:29:29;;;;;;;7.50;5.15;;;15.70;75.90;;;;;;5086833;28;20031;-68
2023/03/18 10:32:20;;;;;;;6.10;4.05;;;15.60;75.70;;;;;;5087150;28;20020;-69
2023/03/18 10:34:56;;;;;;;4.90;3.22;;;15.70;75.80;;;;;;5088312;28;20080;-69
2023/03/18 10:37:54;;;;;;;5.97;3.97;;;15.80;75.80;;;;;;5081363;28;20016;-69
2023/03/18 10:40:22;;;;;;;8.25;5.32;;;15.80;75.50;;;;;;5088497;28;20115;-68
2023/03/18 10:42:51;;;;;;;6.65;4.57;;;15.90;75.30;;;;;;5089474;28;20016;-68
2023/03/18 10:45:27;;;;;;;7.43;5.03;;;15.90;75.20;;;;;;5088090;28;20039;-68
2023/03/18 10:48:16;;;;;;;7.05;4.00;;;15.80;75.10;;;;;;5087435;28;20066;-69
2023/03/18 10:50:51;;;;;;;5.13;3.45;;;15.90;75.20;;;;;;5089459;28;20474;-67
2023/03/18 10:53:27;;;;;;;5.07;3.78;;;16.00;75.00;;;;;;5089287;28;20497;-66
2023/03/18 10:56:08;;;;;;;7.15;4.70;;;16.10;74.80;;;;;;5082951;28;20020;-67
2023/03/18 10:58:34;;;;;;;6.05;3.60;;;16.20;74.70;;;;;;5069206;28;20024;-68
2023/03/18 11:01:00;;;;;;;4.10;3.10;;;16.30;74.50;;;;;;5070140;28;20035;-69
2023/03/18 11:03:30;;;;;;;7.32;4.15;;;16.50;74.30;;;;;;5070120;28;20028;-68
2023/03/18 11:05:59;;;;;;;6.00;3.80;;;16.70;73.90;;;;;;5075993;28;20482;-69
2023/03/18 11:08:39;;;;;;;7.30;4.57;;;16.80;73.20;;;;;;5089153;28;20071;-68
2023/03/18 11:11:20;;;;;;;7.40;5.20;;;16.70;72.80;;;;;;5086148;28;20545;-69
2023/03/18 11:13:54;;;;;;;7.53;4.65;;;16.70;72.40;;;;;;5088415;28;20027;-68
2023/03/18 11:16:40;;;;;;;5.03;3.15;;;16.70;72.20;;;;;;5085492;28;20503;-68
2023/03/18 11:19:46;;;;;;;5.13;3.50;;;16.80;72.30;;;;;;5087832;28;20394;-68
2023/03/18 11:22:24;;;;;;;4.90;2.90;;;17.00;72.30;;;;;;5083141;28;20050;-68
2023/03/18 11:25:00;;;;;;;3.47;2.60;;;17.10;71.80;;;;;;5084306;28;20401;-69
2023/03/18 11:27:38;;;;;;;2.72;2.10;;;17.20;71.70;;;;;;5081766;28;20032;-69
2023/03/18 11:30:27;;;;;;;3.47;2.20;;;17.30;71.50;;;;;;5087583;28;20054;-68
2023/03/18 11:33:02;;;;;;;6.22;3.22;;;17.50;70.90;;;;;;5084715;28;20100;-68
2023/03/18 11:35:36;;;;;;;5.75;3.38;;;17.40;69.90;;;;;;5088287;28;20547;-69
2023/03/18 11:38:04;;;;;;;5.75;3.17;;;17.40;70.20;;;;;;5082942;28;20695;-68
2023/03/18 11:40:30;;;;;;;5.05;3.00;;;17.40;69.90;;;;;;5088983;28;20027;-69
2023/03/18 11:43:01;;;;;;;3.05;2.30;;;17.50;70.00;;;;;;5078858;28;20733;-68
2023/03/18 11:45:43;;;;;;;7.80;3.13;;;17.70;69.90;;;;;;5082266;28;20024;-68
2023/03/18 11:48:35;;;;;;;5.65;2.38;;;17.80;69.30;;;;;;5083884;28;20028;-68
2023/03/18 11:51:18;;;;;;;;;;;17.90;68.70;;;;;;5082378;28;20036;-68
2023/03/18 11:54:17;;;;;;;4.75;2.58;;;18.10;68.80;;;;;;5080912;28;20365;-67
2023/03/18 11:57:00;;;;;;;2.92;1.80;;;18.00;68.10;;;;;;5085873;28;20112;-67
2023/03/18 11:59:44;;;;;;;2.03;1.50;;;18.10;68.30;;;;;;5098997;28;20115;-67
2023/03/18 12:02:41;;;;;;;3.03;1.90;;;18.20;68.30;;;;;;5089451;28;20036;-67
2023/03/18 12:05:20;;;;;;;2.20;1.52;;;18.30;68.10;;;;;;5095619;28;20394;-67
2023/03/18 12:08:10;;;;;;;3.65;2.20;;;18.40;68.00;;;;;;5093199;28;20076;-68
2023/03/18 12:11:15;;;;;;;3.75;1.63;;;18.50;67.70;;;;;;5096818;28;20106;-67
2023/03/18 12:13:49;;;;;;;3.63;2.28;;;18.60;67.20;;;;;;5082404;28;20606;-68
2023/03/18 12:16:57;;;;;;;3.17;1.80;;;18.70;66.00;;;;;;5097674;28;20444;-67
2023/03/18 12:20:05;;;;;;;4.25;2.80;;;18.80;66.10;;;;;;5068599;28;20032;-66
2023/03/18 12:22:53;;;;;;;4.78;2.00;;;18.70;65.10;;;;;;5087513;28;20111;-66
2023/03/18 12:25:52;;;;;;;4.55;2.70;;;18.70;65.50;;;;;;5086000;28;20129;-67
2023/03/18 12:28:42;;;;;;;2.70;1.98;;;18.60;65.50;;;;;;5084664;28;20047;-67
2023/03/18 12:31:16;;;;;;;3.22;2.00;;;18.60;66.00;;;;;;5089622;28;20028;-68
2023/03/18 12:33:56;;;;;;;4.75;2.08;;;18.60;65.80;;;;;;5090608;28;20017;-67
2023/03/18 12:36:54;;;;;;;3.83;2.30;;;18.50;65.80;;;;;;5093759;28;20077;-67
2023/03/18 12:39:46;;;;;;;2.60;1.77;;;18.40;65.50;;;;;;5091791;28;20058;-67
2023/03/18 12:42:25;;;;;;;3.15;1.70;;;18.40;65.50;;;;;;5091052;28;20026;-67
2023/03/18 12:45:00;;;;;;;3.00;1.70;;;18.30;65.60;;;;;;5086141;28;20144;-66
2023/03/18 12:47:45;;;;;;;4.70;2.17;;;18.20;65.70;;;;;;5087645;28;20485;-67
2023/03/18 12:50:24;;;;;;;2.50;1.90;;;18.10;65.90;;;;;;5085709;28;20126;-68
2023/03/18 12:52:59;;;;;;;3.40;1.98;;;18.20;66.10;;;;;;5090951;28;20138;-66
2023/03/18 12:55:37;;;;;;;4.43;2.78;;;18.10;65.90;;;;;;5093143;28;20028;-66
2023/03/18 12:58:17;;;;;;;6.38;3.22;;;18.00;65.80;;;;;;5091450;28;20020;-66
2023/03/18 13:00:53;;;;;;;4.47;2.40;;;17.90;65.00;;;;;;5095741;28;20020;-66
2023/03/18 13:03:34;;;;;;;3.55;1.75;;;17.80;65.60;;;;;;5093073;28;20047;-66